Time;durP1;ratioP1;P1;durP2;ratioP2;P2;SDS_P1;SDS_P2;PMS_P1;PMS_P2;Temp;Humidity;BMP_temperature;BMP_pressure;BME280_temperature;BME280_humidity;BME280_pressure;Samples;Min_cycle;Max_cycle;Signal;HPM_P1;HPM_P2
2022/09/12 00:01:20;;;;;;;36.35;21.80;;;;;;;25.61;100.00;101543.53;5013461;28;20269;-53
2022/09/12 00:03:46;;;;;;;34.60;20.27;;;;;;;25.13;100.00;101543.09;5003600;28;20064;-54
2022/09/12 00:06:20;;;;;;;39.03;20.33;;;;;;;25.46;100.00;101541.63;5006970;28;20281;-52
2022/09/12 00:08:46;;;;;;;34.53;20.97;;;;;;;25.38;100.00;101544.16;5013985;28;20058;-51
2022/09/12 00:11:12;;;;;;;38.75;21.92;;;;;;;25.49;100.00;101534.81;5016425;28;20269;-53
2022/09/12 00:13:40;;;;;;;36.72;21.60;;;;;;;25.21;100.00;101534.34;4996069;28;20034;-53
2022/09/12 00:16:06;;;;;;;36.03;20.37;;;;;;;25.07;100.00;101534.09;4994719;28;20070;-52
2022/09/12 00:18:33;;;;;;;35.13;21.13;;;;;;;25.40;100.00;101531.00;4996335;28;20034;-53
2022/09/12 00:21:03;;;;;;;35.70;21.02;;;;;;;25.18;100.00;101529.44;5011159;28;20031;-52
2022/09/12 00:23:30;;;;;;;34.67;20.67;;;;;;;24.95;100.00;101520.72;5000700;28;20042;-54
2022/09/12 00:25:56;;;;;;;35.33;21.03;;;;;;;25.10;100.00;101528.06;4995872;28;20130;-53
2022/09/12 00:28:21;;;;;;;37.03;22.55;;;;;;;24.94;100.00;101519.09;5018219;28;20030;-54
2022/09/12 00:30:47;;;;;;;35.70;21.15;;;;;;;25.27;100.00;101521.47;5014031;28;20035;-53
2022/09/12 00:33:15;;;;;;;41.25;23.20;;;;;;;25.23;100.00;101517.63;5007589;28;20051;-53
2022/09/12 00:35:43;;;;;;;35.93;21.20;;;;;;;25.02;100.00;101513.03;5015220;28;20114;-54
2022/09/12 00:38:09;;;;;;;44.40;21.57;;;;;;;24.90;100.00;101509.75;5004689;28;20352;-55
2022/09/12 00:40:34;;;;;;;35.47;20.67;;;;;;;25.15;100.00;101516.31;4999232;28;20292;-53
2022/09/12 00:43:00;;;;;;;37.70;21.25;;;;;;;25.08;100.00;101510.28;5006768;28;20032;-52
2022/09/12 00:45:28;;;;;;;39.00;21.13;;;;;;;25.23;100.00;101509.41;4997510;28;20050;-51
2022/09/12 00:47:56;;;;;;;35.83;20.37;;;;;;;25.09;100.00;101510.03;5002757;28;20079;-51
2022/09/12 00:50:21;;;;;;;32.97;20.53;;;;;;;24.57;100.00;101503.78;4992279;28;20303;-53
2022/09/12 00:53:13;;;;;;;35.78;20.88;;;;;;;24.30;100.00;101499.41;4995542;28;20284;-50
2022/09/12 00:55:43;;;;;;;33.47;20.80;;;;;;;24.80;100.00;101502.44;5010527;28;20050;-47
2022/09/12 00:58:20;;;;;;;38.87;22.43;;;;;;;24.86;100.00;101495.00;4993326;28;20306;-48
2022/09/12 01:00:46;;;;;;;36.30;21.00;;;;;;;24.70;100.00;101492.28;5001000;28;20285;-49
2022/09/12 01:03:15;;;;;;;39.05;21.23;;;;;;;24.78;100.00;101490.91;5008712;28;20273;-50
2022/09/12 01:05:46;;;;;;;40.20;22.10;;;;;;;25.03;100.00;101497.47;5003042;28;20053;-54
2022/09/12 01:08:12;;;;;;;36.07;20.67;;;;;;;25.21;100.00;101485.06;5014550;28;20286;-54
2022/09/12 01:10:39;;;;;;;37.53;21.93;;;;;;;24.52;100.00;101495.59;4994090;28;20320;-54
2022/09/12 01:13:08;;;;;;;37.30;22.33;;;;;;;24.48;100.00;101490.66;4994442;28;20042;-52
2022/09/12 01:15:36;;;;;;;36.23;20.87;;;;;;;24.53;100.00;101491.75;5003423;28;20273;-53
2022/09/12 01:18:28;;;;;;;42.83;24.20;;;;;;;24.70;100.00;101497.75;4996707;28;20261;-50
2022/09/12 01:21:16;;;;;;;41.53;22.23;;;;;;;24.65;100.00;101489.53;5002929;28;20300;-50
2022/09/12 01:24:10;;;;;;;38.47;21.83;;;;;;;24.83;100.00;101495.56;5015588;28;20286;-50
2022/09/12 01:26:58;;;;;;;39.10;21.97;;;;;;;24.85;100.00;101496.09;4991290;28;20280;-50
2022/09/12 01:30:03;;;;;;;35.43;21.67;;;;;;;24.79;100.00;101491.75;4990820;28;20356;-52
2022/09/12 01:32:52;;;;;;;37.30;22.43;;;;;;;24.54;100.00;101488.72;4978860;28;20284;-52
2022/09/12 01:35:41;;;;;;;39.07;22.90;;;;;;;24.31;100.00;101479.19;5001131;28;20265;-54
2022/09/12 01:38:14;;;;;;;37.73;22.37;;;;;;;24.56;100.00;101486.53;4998167;28;20311;-52
2022/09/12 01:40:53;;;;;;;39.60;22.47;;;;;;;24.58;100.00;101483.53;4999287;28;20272;-51
2022/09/12 01:43:27;;;;;;;39.97;22.57;;;;;;;24.46;100.00;101481.91;5000955;28;20648;-50
2022/09/12 01:46:02;;;;;;;41.45;22.80;;;;;;;24.10;100.00;101467.41;5007180;28;20293;-49
2022/09/12 01:48:49;;;;;;;37.00;21.93;;;;;;;24.42;100.00;101464.41;4991903;28;20039;-50
2022/09/12 01:51:31;;;;;;;37.53;22.43;;;;;;;24.47;100.00;101464.44;5000691;28;20281;-51
2022/09/12 01:54:04;;;;;;;39.27;21.00;;;;;;;24.05;100.00;101462.78;4996368;28;20329;-53
2022/09/12 01:56:33;;;;;;;37.03;21.40;;;;;;;23.98;100.00;101459.44;4992677;28;20281;-51
2022/09/12 01:59:11;;;;;;;44.60;23.27;;;;;;;24.39;100.00;101454.03;4993587;28;20275;-52
2022/09/12 02:01:45;;;;;;;36.83;21.63;;;;;;;24.27;100.00;101456.22;5002826;28;20280;-50
2022/09/12 02:04:24;;;;;;;34.33;21.23;;;;;;;24.40;100.00;101447.47;4999132;28;20275;-50
2022/09/12 02:06:58;;;;;;;35.90;21.50;;;;;;;24.52;100.00;101449.09;5002334;28;20290;-52
2022/09/12 02:09:35;;;;;;;37.10;22.13;;;;;;;24.44;100.00;101445.81;4991161;28;20288;-54
2022/09/12 02:12:02;;;;;;;;;;;;;;;24.32;100.00;101440.63;4999209;28;20266;-53
2022/09/12 02:14:33;;;;;;;33.20;20.70;;;;;;;24.38;100.00;101440.66;4994829;28;19914;-53
2022/09/12 02:17:10;;;;;;;35.33;20.33;;;;;;;24.55;100.00;101440.34;4992060;28;20030;-52
2022/09/12 02:19:43;;;;;;;36.70;22.33;;;;;;;24.45;100.00;101444.75;4990244;28;20283;-52
2022/09/12 02:22:13;;;;;;;36.80;21.47;;;;;;;24.44;100.00;101437.63;4991906;28;20271;-52
2022/09/12 02:24:42;;;;;;;38.63;21.50;;;;;;;24.38;100.00;101435.19;4990111;28;20273;-52
2022/09/12 02:27:20;;;;;;;35.80;20.67;;;;;;;24.56;100.00;101436.53;5000763;28;20284;-54
2022/09/12 02:29:47;;;;;;;38.70;21.47;;;;;;;24.10;100.00;101424.53;4993424;28;20284;-50
2022/09/12 02:32:31;;;;;;;35.13;21.03;;;;;;;24.47;100.00;101434.34;5000052;28;20261;-53
2022/09/12 02:35:12;;;;;;;33.83;19.20;;;;;;;23.91;100.00;101432.41;4999775;28;20268;-54
2022/09/12 02:38:02;;;;;;;33.23;20.53;;;;;;;24.11;100.00;101436.28;5003533;28;20267;-53
2022/09/12 02:40:29;;;;;;;36.53;20.90;;;;;;;24.49;100.00;101434.06;4997652;28;20276;-53
2022/09/12 02:42:55;;;;;;;34.17;20.70;;;;;;;24.53;100.00;101437.06;4995041;28;20284;-50
2022/09/12 02:45:22;;;;;;;35.80;20.27;;;;;;;24.59;100.00;101435.97;4992476;28;20345;-54
2022/09/12 02:48:16;;;;;;;36.30;21.13;;;;;;;24.64;100.00;101433.22;5002156;28;20050;-52
2022/09/12 02:50:42;;;;;;;38.97;21.30;;;;;;;24.19;100.00;101427.53;4995501;28;20277;-48
2022/09/12 02:53:10;;;;;;;34.65;20.80;;;;;;;24.55;100.00;101427.47;5005599;28;20279;-50
2022/09/12 02:55:39;;;;;;;39.77;21.57;;;;;;;24.36;100.00;101423.72;5012529;28;20033;-51
2022/09/12 02:58:10;;;;;;;36.50;21.77;;;;;;;24.24;100.00;101424.78;4987155;28;20257;-54
2022/09/12 03:01:11;;;;;;;35.30;20.60;;;;;;;24.49;100.00;101431.31;4990815;28;20276;-52
2022/09/12 03:03:51;;;;;;;41.03;21.77;;;;;;;24.36;100.00;101420.97;4994536;28;20288;-51
2022/09/12 03:06:38;;;;;;;37.93;23.00;;;;;;;24.16;100.00;101417.16;4997163;28;20307;-53
2022/09/12 03:09:14;;;;;;;40.70;23.05;;;;;;;24.07;100.00;101411.41;5003270;28;20285;-53
2022/09/12 03:12:02;;;;;;;45.33;25.20;;;;;;;24.13;100.00;101415.78;4993522;28;20125;-55
2022/09/12 03:14:36;;;;;;;39.92;23.15;;;;;;;23.80;100.00;101408.91;4992607;28;20046;-51
2022/09/12 03:17:16;;;;;;;44.20;23.70;;;;;;;23.69;100.00;101405.34;4995954;28;20098;-53
2022/09/12 03:20:01;;;;;;;41.73;24.37;;;;;;;23.91;100.00;101405.91;4991378;28;20276;-50
2022/09/12 03:22:38;;;;;;;43.07;24.33;;;;;;;24.15;100.00;101399.94;4995139;28;20272;-53
2022/09/12 03:25:03;;;;;;;;;;;;;;;24.15;100.00;101402.66;4996022;28;20276;-52
2022/09/12 03:27:34;;;;;;;41.53;22.83;;;;;;;24.26;100.00;101400.75;4997984;28;19925;-49
2022/09/12 03:30:00;;;;;;;42.47;24.27;;;;;;;24.26;100.00;101405.41;4991721;28;20031;-51
2022/09/12 03:32:40;;;;;;;44.30;25.63;;;;;;;24.05;100.00;101400.75;5004575;28;20264;-53
2022/09/12 03:35:06;;;;;;;50.83;25.87;;;;;;;24.09;100.00;101392.00;4993455;28;20034;-54
2022/09/12 03:37:31;;;;;;;45.58;26.98;;;;;;;23.91;100.00;101394.19;4992899;28;20285;-50
2022/09/12 03:39:57;;;;;;;46.38;27.15;;;;;;;23.55;100.00;101400.41;4994507;28;20054;-51
2022/09/12 03:42:23;;;;;;;50.13;27.15;;;;;;;23.42;100.00;101404.47;5002316;28;20045;-52
2022/09/12 03:44:48;;;;;;;45.92;26.45;;;;;;;23.98;100.00;101399.34;5008028;28;20046;-53
2022/09/12 03:47:14;;;;;;;44.95;26.23;;;;;;;23.39;100.00;101398.72;5004064;28;20073;-54
2022/09/12 03:49:39;;;;;;;48.13;26.38;;;;;;;23.87;100.00;101399.34;5014674;28;20042;-50
2022/09/12 03:52:05;;;;;;;44.27;26.03;;;;;;;23.34;100.00;101396.78;4998542;28;20061;-54
2022/09/12 03:54:30;;;;;;;49.33;28.90;;;;;;;23.11;100.00;101390.69;5004853;28;20429;-52
2022/09/12 03:56:56;;;;;;;52.75;28.30;;;;;;;23.01;100.00;101377.81;4995385;28;20049;-54
2022/09/12 03:59:21;;;;;;;48.30;26.88;;;;;;;23.56;100.00;101391.13;5002181;28;20050;-50
2022/09/12 04:01:47;;;;;;;53.80;30.42;;;;;;;23.19;100.00;101387.47;4995442;28;20090;-51
2022/09/12 04:04:12;;;;;;;52.90;27.77;;;;;;;23.60;100.00;101391.41;5004171;28;20040;-51
2022/09/12 04:06:38;;;;;;;47.70;27.30;;;;;;;23.68;100.00;101390.03;5007107;28;20031;-50
2022/09/12 04:09:04;;;;;;;53.15;28.70;;;;;;;23.36;100.00;101389.16;4992991;28;20061;-50
2022/09/12 04:11:31;;;;;;;51.90;28.75;;;;;;;23.06;100.00;101377.84;5002581;28;20045;-52
2022/09/12 04:13:57;;;;;;;57.20;30.27;;;;;;;22.89;100.00;101379.97;5001940;28;20030;-49
2022/09/12 04:16:22;;;;;;;54.17;28.65;;;;;;;22.97;100.00;101368.53;4996969;28;20306;-50
2022/09/12 04:18:48;;;;;;;53.25;29.20;;;;;;;22.99;100.00;101371.81;4993692;28;20038;-53
2022/09/12 04:21:18;;;;;;;53.95;29.23;;;;;;;23.13;100.00;101379.53;5002024;28;20078;-51
2022/09/12 04:23:44;;;;;;;57.53;30.17;;;;;;;23.36;100.00;101383.69;4996004;28;20035;-47
2022/09/12 04:26:10;;;;;;;54.67;29.80;;;;;;;22.82;100.00;101374.75;4999623;28;20273;-47
2022/09/12 04:28:37;;;;;;;53.03;30.97;;;;;;;23.09;100.00;101378.41;5002087;28;20096;-52
2022/09/12 04:31:06;;;;;;;54.40;29.88;;;;;;;23.33;100.00;101374.16;5002049;28;20348;-49
2022/09/12 04:33:32;;;;;;;56.97;29.10;;;;;;;22.74;100.00;101375.28;4995789;28;20110;-52
2022/09/12 04:36:06;;;;;;;59.20;30.70;;;;;;;23.01;100.00;101371.56;4995582;28;20475;-52
2022/09/12 04:38:33;;;;;;;58.17;30.83;;;;;;;22.93;100.00;101364.72;5000646;28;20280;-52
2022/09/12 04:40:59;;;;;;;71.47;35.63;;;;;;;23.22;100.00;101372.44;4994459;28;20307;-51
2022/09/12 04:43:24;;;;;;;80.13;38.92;;;;;;;23.24;100.00;101370.25;4994724;28;20273;-52
2022/09/12 04:45:50;;;;;;;85.13;42.15;;;;;;;23.43;100.00;101380.72;4996485;28;20042;-52
2022/09/12 04:48:16;;;;;;;80.63;40.00;;;;;;;23.44;100.00;101374.16;4992722;28;20043;-49
2022/09/12 04:50:41;;;;;;;64.23;35.37;;;;;;;23.29;100.00;101370.31;4994149;28;20102;-48
2022/09/12 04:53:07;;;;;;;65.50;34.47;;;;;;;23.89;100.00;101369.84;4994493;28;20031;-51
2022/09/12 04:55:34;;;;;;;85.40;40.83;;;;;;;24.26;100.00;101367.16;5001349;28;20034;-53
2022/09/12 04:58:00;;;;;;;74.77;35.93;;;;;;;24.21;100.00;101370.69;4990026;28;20098;-48
2022/09/12 05:00:26;;;;;;;;;;;;;;;23.73;100.00;101360.00;5028200;28;20340;-53
2022/09/12 05:02:51;;;;;;;79.73;39.10;;;;;;;24.01;100.00;101363.31;5003645;28;19914;-54
2022/09/12 05:05:17;;;;;;;80.45;38.28;;;;;;;23.77;100.00;101367.41;4996985;28;20030;-52
2022/09/12 05:07:43;;;;;;;61.40;31.55;;;;;;;24.02;100.00;101373.97;5000820;28;20064;-51
2022/09/12 05:10:09;;;;;;;81.47;38.75;;;;;;;23.87;100.00;101372.03;5005656;28;20046;-53
2022/09/12 05:12:35;;;;;;;74.28;34.80;;;;;;;23.77;100.00;101372.06;5004706;28;20046;-50
2022/09/12 05:15:01;;;;;;;67.43;33.20;;;;;;;23.53;100.00;101371.72;5003445;28;20049;-53
2022/09/12 05:17:28;;;;;;;71.82;34.67;;;;;;;23.74;100.00;101375.31;4994138;28;20038;-49
2022/09/12 05:19:54;;;;;;;76.60;34.73;;;;;;;24.20;100.00;101377.25;4994073;28;20094;-51
2022/09/12 05:22:20;;;;;;;77.27;36.43;;;;;;;24.07;100.00;101386.81;4992715;28;20272;-49
2022/09/12 05:24:47;;;;;;;87.15;41.95;;;;;;;23.86;100.00;101378.59;4998140;28;20032;-49
2022/09/12 05:27:12;;;;;;;81.03;34.80;;;;;;;23.42;100.00;101379.09;4996622;28;20058;-47
2022/09/12 05:29:38;;;;;;;69.57;34.50;;;;;;;24.09;100.00;101379.19;5004181;28;20308;-53
2022/09/12 05:32:03;;;;;;;67.68;32.88;;;;;;;23.52;100.00;101370.91;5003009;28;20104;-50
2022/09/12 05:34:29;;;;;;;67.55;32.65;;;;;;;23.28;100.00;101382.31;4999674;28;20041;-51
2022/09/12 05:36:54;;;;;;;75.70;34.53;;;;;;;23.31;100.00;101380.97;4990631;28;20141;-52
2022/09/12 05:39:19;;;;;;;62.40;30.70;;;;;;;23.44;100.00;101374.16;4993411;28;20027;-51
2022/09/12 05:41:46;;;;;;;81.88;33.85;;;;;;;23.24;100.00;101369.47;4989379;28;20290;-52
2022/09/12 05:44:13;;;;;;;73.07;31.23;;;;;;;23.43;100.00;101369.81;5005892;28;20047;-53
2022/09/12 05:46:44;;;;;;;62.87;31.87;;;;;;;23.36;100.00;101377.44;4989503;28;20043;-52
2022/09/12 05:49:12;;;;;;;66.00;31.67;;;;;;;23.45;100.00;101375.81;4994339;28;20291;-53
2022/09/12 05:51:40;;;;;;;69.20;31.53;;;;;;;23.56;100.00;101369.28;4989128;28;20286;-53
2022/09/12 05:54:08;;;;;;;60.93;30.63;;;;;;;23.14;100.00;101379.22;4991830;28;20277;-52
2022/09/12 05:56:38;;;;;;;65.23;32.10;;;;;;;23.53;100.00;101380.75;4998984;28;20268;-53
2022/09/12 05:59:07;;;;;;;66.77;31.33;;;;;;;23.08;100.00;101374.06;4996069;28;20324;-52
2022/09/12 06:01:34;;;;;;;62.87;30.80;;;;;;;23.46;100.00;101377.44;4997357;28;20278;-50
2022/09/12 06:04:03;;;;;;;68.43;31.93;;;;;;;23.88;100.00;101381.06;4998204;28;20275;-51
2022/09/12 06:06:30;;;;;;;63.43;32.10;;;;;;;22.94;100.00;101369.06;5007908;28;20273;-47
2022/09/12 06:09:01;;;;;;;65.77;33.67;;;;;;;22.75;100.00;101368.72;4996263;28;20311;-53
2022/09/12 06:11:29;;;;;;;71.80;33.40;;;;;;;22.75;100.00;101371.44;5003808;28;20272;-48
2022/09/12 06:13:56;;;;;;;67.47;33.43;;;;;;;22.75;100.00;101369.53;4999913;28;20269;-52
2022/09/12 06:16:25;;;;;;;74.83;35.03;;;;;;;23.06;100.00;101375.09;5003972;28;20273;-50
2022/09/12 06:18:53;;;;;;;63.23;31.90;;;;;;;22.91;100.00;101372.34;5001807;28;20280;-51
2022/09/12 06:21:20;;;;;;;68.80;33.00;;;;;;;23.40;100.00;101375.81;5016128;28;20287;-52
2022/09/12 06:23:46;;;;;;;83.83;35.57;;;;;;;22.89;100.00;101379.97;5009642;28;20287;-51
2022/09/12 06:26:15;;;;;;;71.47;32.57;;;;;;;22.31;100.00;101364.34;5010668;28;20291;-50
2022/09/12 06:28:43;;;;;;;66.30;33.63;;;;;;;22.45;100.00;101370.97;5001622;28;20284;-50
2022/09/12 06:31:14;;;;;;;79.90;36.40;;;;;;;22.28;100.00;101370.31;5007133;28;20275;-51
2022/09/12 06:33:45;;;;;;;74.40;34.07;;;;;;;22.14;100.00;101365.28;5000394;28;20269;-50
2022/09/12 06:36:15;;;;;;;72.37;34.53;;;;;;;22.13;100.00;101363.66;4991827;28;20269;-50
2022/09/12 06:38:40;;;;;;;67.70;32.83;;;;;;;22.39;100.00;101372.03;4995239;28;20264;-49
2022/09/12 06:41:10;;;;;;;73.15;34.30;;;;;;;22.62;100.00;101365.38;5005240;28;20311;-51
2022/09/12 06:43:36;;;;;;;75.23;34.87;;;;;;;23.00;100.00;101368.00;4997308;28;20034;-52
2022/09/12 06:46:02;;;;;;;68.20;32.72;;;;;;;22.70;100.00;101369.50;5002151;28;20266;-48
2022/09/12 06:48:28;;;;;;;;;;;;;;;22.86;100.00;101366.88;5002373;28;20047;-52
2022/09/12 06:51:06;;;;;;;69.47;34.33;;;;;;;22.57;100.00;101369.97;5004549;28;19932;-48
2022/09/12 06:53:33;;;;;;;66.80;32.30;;;;;;;23.08;100.00;101377.59;4996676;28;20025;-52
2022/09/12 06:56:01;;;;;;;66.67;31.27;;;;;;;23.28;100.00;101385.03;4994611;28;20280;-52
2022/09/12 06:58:28;;;;;;;63.73;30.47;;;;;;;22.84;100.00;101367.13;5007164;28;20276;-51
2022/09/12 07:01:08;;;;;;;68.27;32.43;;;;;;;22.98;100.00;101364.72;5003478;28;20276;-50
2022/09/12 07:03:35;;;;;;;69.77;32.60;;;;;;;23.02;100.00;101363.09;5002972;28;20292;-51
2022/09/12 07:06:06;;;;;;;66.00;31.13;;;;;;;23.21;100.00;101359.91;4997548;28;20268;-52
2022/09/12 07:08:32;;;;;;;63.57;32.83;;;;;;;23.34;100.00;101359.44;5021938;28;20321;-53
2022/09/12 07:11:07;;;;;;;69.67;31.60;;;;;;;23.24;100.00;101355.81;5017191;28;20273;-53
2022/09/12 07:13:33;;;;;;;66.17;33.13;;;;;;;23.33;100.00;101360.50;5001060;28;20261;-52
2022/09/12 07:16:04;;;;;;;57.72;30.38;;;;;;;23.57;100.00;101361.91;4997649;28;20280;-51
2022/09/12 07:18:33;;;;;;;71.13;32.37;;;;;;;23.32;100.00;101360.78;4997216;28;20031;-47
2022/09/12 07:21:00;;;;;;;61.07;30.97;;;;;;;23.34;100.00;101359.44;4998783;28;20268;-48
2022/09/12 07:23:26;;;;;;;61.90;31.70;;;;;;;23.18;100.00;101364.00;4997378;28;20265;-52
2022/09/12 07:25:53;;;;;;;60.53;30.23;;;;;;;23.29;100.00;101361.31;5002776;28;20276;-53
2022/09/12 07:28:19;;;;;;;60.63;32.05;;;;;;;24.09;100.00;101362.78;4996969;28;20039;-50
2022/09/12 07:30:45;;;;;;;58.35;30.80;;;;;;;24.05;100.00;101364.44;5004192;28;20033;-52
2022/09/12 07:33:10;;;;;;;60.27;30.53;;;;;;;24.18;100.00;101361.13;5001134;28;20035;-52
2022/09/12 07:35:36;;;;;;;64.30;32.10;;;;;;;23.90;100.00;101363.31;5008070;28;20031;-52
2022/09/12 07:38:01;;;;;;;60.30;29.80;;;;;;;23.68;100.00;101354.56;5009913;28;20042;-53
2022/09/12 07:40:27;;;;;;;59.50;31.80;;;;;;;23.34;100.00;101358.59;4996558;28;20062;-53
2022/09/12 07:42:52;;;;;;;63.00;32.33;;;;;;;23.66;100.00;101360.31;5007470;28;20055;-52
2022/09/12 07:45:18;;;;;;;62.35;29.77;;;;;;;23.91;100.00;101364.94;4994409;28;20034;-52
2022/09/12 07:47:43;;;;;;;58.00;30.45;;;;;;;23.78;100.00;101370.97;4994411;28;20055;-51
2022/09/12 07:50:09;;;;;;;53.63;28.40;;;;;;;24.09;100.00;101370.97;5003044;28;20113;-54
2022/09/12 07:52:34;;;;;;;53.83;27.13;;;;;;;24.08;100.00;101371.25;4992342;28;20302;-50
2022/09/12 07:55:00;;;;;;;52.40;28.48;;;;;;;24.01;100.00;101371.50;5000456;28;20374;-53
2022/09/12 07:57:25;;;;;;;55.95;27.83;;;;;;;24.06;100.00;101375.06;4997812;28;20049;-53
2022/09/12 07:59:51;;;;;;;52.07;27.73;;;;;;;24.82;100.00;101362.66;4996125;28;20027;-54
2022/09/12 08:02:16;;;;;;;49.22;25.00;;;;;;;24.39;100.00;101373.97;4995575;28;20268;-51
2022/09/12 08:04:43;;;;;;;47.00;25.60;;;;;;;25.17;100.00;101363.59;4996771;28;20054;-51
2022/09/12 08:07:09;;;;;;;51.53;26.40;;;;;;;25.10;100.00;101372.09;4993009;28;20274;-52
2022/09/12 08:09:35;;;;;;;50.47;25.80;;;;;;;24.66;100.00;101368.13;5011391;28;20141;-51
2022/09/12 08:12:00;;;;;;;44.45;24.85;;;;;;;24.99;100.00;101365.88;4991614;28;20035;-51
2022/09/12 08:14:26;;;;;;;43.72;25.73;;;;;;;24.91;100.00;101363.69;4999920;28;20035;-50
2022/09/12 08:16:52;;;;;;;42.70;23.42;;;;;;;24.73;100.00;101370.56;4991802;28;20037;-50
2022/09/12 08:19:18;;;;;;;48.47;26.60;;;;;;;25.15;100.00;101377.53;4994583;28;20053;-52
2022/09/12 08:21:44;;;;;;;44.17;25.43;;;;;;;25.23;100.00;101389.81;5005127;28;20043;-50
2022/09/12 08:24:10;;;;;;;47.80;26.38;;;;;;;25.56;100.00;101376.50;5004155;28;20037;-46
2022/09/12 08:26:36;;;;;;;42.23;23.40;;;;;;;25.55;100.00;101374.06;5008667;28;20039;-50
2022/09/12 08:29:03;;;;;;;36.80;22.48;;;;;;;25.68;100.00;101378.09;5008930;28;20039;-49
2022/09/12 08:31:30;;;;;;;44.10;22.90;;;;;;;25.65;100.00;101387.69;5003317;28;20042;-47
2022/09/12 08:33:57;;;;;;;40.90;22.93;;;;;;;25.63;100.00;101384.41;5011223;28;20035;-48
2022/09/12 08:36:24;;;;;;;;;;;;;;;25.60;100.00;101382.25;5032500;28;20043;-48
2022/09/12 08:38:57;;;;;;;46.07;24.40;;;;;;;26.04;100.00;101395.06;5011801;28;19936;-49
2022/09/12 08:41:27;;;;;;;46.40;26.20;;;;;;;25.88;100.00;101399.84;5007807;28;20398;-47
2022/09/12 08:44:02;;;;;;;37.90;22.33;;;;;;;26.06;100.00;101387.38;5014107;28;20088;-47
2022/09/12 08:46:37;;;;;;;35.00;20.83;;;;;;;26.15;100.00;101387.56;5010645;28;20046;-49
2022/09/12 08:49:08;;;;;;;58.77;34.73;;;;;;;26.04;100.00;101389.56;4993150;28;20066;-49
2022/09/12 08:51:34;;;;;;;38.03;22.73;;;;;;;26.91;100.00;101392.56;5003378;28;20042;-48
2022/09/12 08:54:01;;;;;;;54.70;28.37;;;;;;;27.41;100.00;101396.84;5009408;28;20049;-52
2022/09/12 08:56:34;;;;;;;47.83;28.23;;;;;;;26.98;100.00;101392.19;5009390;28;20057;-48
2022/09/12 08:59:00;;;;;;;34.30;21.10;;;;;;;27.66;100.00;101399.53;5000154;28;20027;-51
2022/09/12 09:01:39;;;;;;;41.83;24.45;;;;;;;28.17;100.00;101392.41;4996223;28;20038;-49
2022/09/12 09:04:33;;;;;;;29.23;16.97;;;;;;;29.14;100.00;101396.34;4997532;28;20035;-51
2022/09/12 09:07:05;;;;;;;46.97;26.60;;;;;;;29.47;100.00;101390.66;4993635;28;20045;-53
2022/09/12 09:09:52;;;;;;;23.90;15.83;;;;;;;29.83;97.42;101398.06;4994109;28;20058;-51
2022/09/12 09:12:39;;;;;;;22.13;14.77;;;;;;;30.15;95.48;101396.19;4998744;28;20058;-49
2022/09/12 09:15:29;;;;;;;33.05;18.60;;;;;;;30.31;90.56;101396.59;5007341;28;20026;-51
2022/09/12 09:18:03;;;;;;;24.40;16.40;;;;;;;30.98;89.53;101388.41;5003521;28;20046;-48
2022/09/12 09:20:46;;;;;;;25.80;15.00;;;;;;;30.90;89.14;101397.47;5004092;28;20037;-48
2022/09/12 09:23:27;;;;;;;23.30;15.73;;;;;;;32.22;83.08;101388.34;5001400;28;20035;-47
2022/09/12 09:26:03;;;;;;;23.93;15.60;;;;;;;32.24;80.46;101391.59;5006663;28;20035;-47
2022/09/12 09:28:38;;;;;;;22.98;14.55;;;;;;;32.32;77.75;101396.31;5000465;28;20043;-52
2022/09/12 09:31:10;;;;;;;19.42;13.35;;;;;;;31.87;78.94;101384.56;4993540;28;20049;-51
2022/09/12 09:33:36;;;;;;;19.55;13.82;;;;;;;32.59;76.75;101383.19;4994947;28;20062;-48
2022/09/12 09:36:24;;;;;;;21.73;14.45;;;;;;;32.54;74.87;101384.19;4994358;28;20045;-50
2022/09/12 09:39:01;;;;;;;20.63;12.88;;;;;;;32.89;71.89;101380.44;5003691;28;20068;-50
2022/09/12 09:41:40;;;;;;;20.50;12.10;;;;;;;33.56;68.47;101379.75;4994246;28;20035;-51
2022/09/12 09:44:07;;;;;;;18.67;11.40;;;;;;;33.43;66.28;101385.28;5012523;28;20056;-52
2022/09/12 09:46:33;;;;;;;17.35;11.85;;;;;;;33.77;66.25;101381.69;5001858;28;20064;-50
2022/09/12 09:49:02;;;;;;;19.05;11.82;;;;;;;33.69;66.00;101386.19;4991743;28;20038;-47
2022/09/12 09:51:33;;;;;;;17.60;11.27;;;;;;;33.99;64.02;101383.28;4991144;28;20045;-52
2022/09/12 09:54:14;;;;;;;19.00;11.85;;;;;;;34.14;64.15;101381.81;5004741;28;20056;-48
2022/09/12 09:56:41;;;;;;;16.15;10.48;;;;;;;34.29;61.84;101381.16;5011443;28;20035;-50
2022/09/12 09:59:28;;;;;;;16.92;10.65;;;;;;;33.75;61.07;101380.06;5015617;28;20035;-50
2022/09/12 10:01:56;;;;;;;17.15;10.68;;;;;;;34.51;59.39;101373.56;5001773;28;20037;-53
2022/09/12 10:04:25;;;;;;;18.17;11.05;;;;;;;34.32;59.05;101374.06;5014051;28;20076;-52
2022/09/12 10:06:53;;;;;;;14.82;11.10;;;;;;;35.28;57.59;101376.66;4990416;28;20061;-49
2022/09/12 10:09:23;;;;;;;12.82;8.75;;;;;;;35.15;56.42;101371.13;4993373;28;20048;-50
2022/09/12 10:11:50;;;;;;;16.70;9.43;;;;;;;34.91;57.13;101371.16;4998317;28;20041;-51
2022/09/12 10:14:40;;;;;;;16.25;8.75;;;;;;;36.55;52.45;101366.09;4988982;28;20045;-46
2022/09/12 10:17:41;;;;;;;11.52;8.77;;;;;;;36.55;51.30;101361.31;4994381;28;20035;-48
2022/09/12 10:20:31;;;;;;;16.83;8.65;;;;;;;36.83;49.68;101365.13;4993767;28;20041;-47
2022/09/12 10:22:59;;;;;;;15.15;8.50;;;;;;;37.09;48.94;101360.91;4992832;28;20065;-49
2022/09/12 10:25:26;;;;;;;12.63;8.88;;;;;;;37.59;48.13;101361.91;4996707;28;20054;-48
2022/09/12 10:27:55;;;;;;;13.75;8.10;;;;;;;37.58;47.12;101359.53;4995156;28;20065;-50
2022/09/12 10:30:23;;;;;;;10.90;7.35;;;;;;;37.39;47.88;101352.75;5006175;28;20027;-51
2022/09/12 10:32:50;;;;;;;10.48;6.90;;;;;;;38.03;45.56;101345.97;4993143;28;20035;-49
2022/09/12 10:35:20;;;;;;;15.60;8.52;;;;;;;38.03;45.55;101339.59;4996514;28;20034;-51
2022/09/12 10:37:53;;;;;;;10.40;6.93;;;;;;;37.52;45.62;101339.47;5001603;28;20026;-53
2022/09/12 10:40:39;;;;;;;12.20;7.38;;;;;;;38.72;43.50;101336.63;5010933;28;20030;-47
2022/09/12 10:43:23;;;;;;;8.82;5.70;;;;;;;39.15;41.39;101339.22;4998790;28;20034;-48
2022/09/12 10:45:49;;;;;;;9.10;6.22;;;;;;;39.32;42.01;101333.38;4999076;28;20039;-53
2022/09/12 10:48:30;;;;;;;7.60;5.63;;;;;;;38.77;42.17;101331.94;4995641;28;20094;-52
2022/09/12 10:50:57;;;;;;;9.48;5.88;;;;;;;39.68;40.14;101333.78;5002600;28;20038;-51
2022/09/12 10:53:30;;;;;;;14.65;6.90;;;;;;;39.12;40.01;101330.78;5011595;28;20025;-51
2022/09/12 10:56:15;;;;;;;12.13;6.15;;;;;;;40.02;39.26;101325.28;5000268;28;20034;-51
2022/09/12 10:59:03;;;;;;;16.00;10.75;;;;;;;41.06;36.92;101329.09;4997858;28;20043;-49
2022/09/12 11:01:34;;;;;;;8.70;6.20;;;;;;;41.01;36.39;101321.88;5002301;28;20027;-53
2022/09/12 11:04:06;;;;;;;8.50;6.55;;;;;;;40.56;37.03;101313.63;5002843;28;20061;-48
2022/09/12 11:06:57;;;;;;;9.80;6.05;;;;;;;40.31;37.15;101308.72;4991604;28;20065;-50
2022/09/12 11:09:34;;;;;;;10.45;5.63;;;;;;;40.86;35.77;101316.22;4997336;28;20023;-51
2022/09/12 11:12:35;;;;;;;9.35;5.78;;;;;;;40.60;35.04;101322.06;4994389;28;20035;-51
2022/09/12 11:15:06;;;;;;;8.80;5.75;;;;;;;40.20;35.68;101305.03;4993466;28;20047;-49
2022/09/12 11:18:00;;;;;;;11.68;7.50;;;;;;;39.79;36.00;101306.69;5007816;28;20065;-49
2022/09/12 11:20:31;;;;;;;8.73;6.00;;;;;;;39.63;36.75;101297.75;4994466;28;20038;-51
2022/09/12 11:23:32;;;;;;;9.30;6.95;;;;;;;39.52;37.92;101301.25;5014632;28;20062;-51